createdAt,value
2023-01-26T00:00:23.100Z,2.90
2023-01-26T00:02:51.974Z,3.35
2023-01-26T00:05:20.861Z,3.22
2023-01-26T00:07:50.059Z,2.80
2023-01-26T00:10:18.918Z,2.90
2023-01-26T00:12:48.364Z,2.63
2023-01-26T00:15:18.799Z,2.50
2023-01-26T00:17:47.669Z,2.58
2023-01-26T00:20:17.270Z,2.47
2023-01-26T00:22:46.192Z,2.53
2023-01-26T00:25:15.055Z,2.30
2023-01-26T00:27:43.885Z,2.85
2023-01-26T00:30:13.913Z,2.25
2023-01-26T00:32:44.655Z,3.10
2023-01-26T00:35:13.555Z,2.95
2023-01-26T00:37:43.016Z,2.63
2023-01-26T00:40:12.948Z,2.70
2023-01-26T00:42:41.976Z,2.08
2023-01-26T00:45:11.397Z,2.92
2023-01-26T00:47:40.502Z,2.58
2023-01-26T00:50:12.513Z,2.65
2023-01-26T00:52:41.542Z,2.15
2023-01-26T00:55:10.614Z,2.38
2023-01-26T00:57:39.481Z,3.30
2023-01-26T01:00:11.036Z,2.78
2023-01-26T01:02:39.982Z,3.78
2023-01-26T01:05:10.964Z,2.83
2023-01-26T01:07:39.756Z,2.33
2023-01-26T01:10:10.235Z,2.08
2023-01-26T01:12:39.239Z,3.50
2023-01-26T01:15:09.740Z,2.80
2023-01-26T01:17:38.888Z,2.70
2023-01-26T01:20:11.942Z,2.60
2023-01-26T01:22:43.356Z,2.15
2023-01-26T01:25:13.200Z,5.18
2023-01-26T01:27:42.087Z,2.17
2023-01-26T01:30:12.749Z,2.50
2023-01-26T01:32:42.049Z,2.50
2023-01-26T01:35:12.360Z,2.67
2023-01-26T01:37:41.183Z,4.97
2023-01-26T01:40:13.445Z,1.67
2023-01-26T01:42:48.275Z,2.10
2023-01-26T01:45:40.963Z,1.90
2023-01-26T01:48:25.196Z,2.70
2023-01-26T01:50:57.599Z,2.13
2023-01-26T01:53:30.833Z,2.60
2023-01-26T01:56:04.312Z,2.30
2023-01-26T01:58:36.736Z,3.17
2023-01-26T02:01:05.884Z,1.80
2023-01-26T02:03:36.623Z,2.90
2023-01-26T02:06:12.512Z,3.88
2023-01-26T02:08:46.289Z,3.20
2023-01-26T02:11:18.182Z,2.08
2023-01-26T02:13:50.019Z,2.00
2023-01-26T02:16:19.987Z,3.40
2023-01-26T02:18:49.262Z,2.53
2023-01-26T02:21:21.115Z,1.95
2023-01-26T02:24:01.268Z,2.80
2023-01-26T02:26:34.316Z,2.83
2023-01-26T02:29:05.762Z,2.95
2023-01-26T02:31:34.904Z,2.03
2023-01-26T02:34:03.902Z,4.63
2023-01-26T02:36:34.740Z,4.07
2023-01-26T02:39:25.040Z,3.00
2023-01-26T02:42:13.193Z,2.40
2023-01-26T02:44:44.751Z,2.13
2023-01-26T02:47:14.913Z,2.40
2023-01-26T02:49:51.068Z,2.13
2023-01-26T02:52:23.370Z,2.85
2023-01-26T02:55:17.721Z,2.90
2023-01-26T02:57:48.293Z,2.72
2023-01-26T03:00:19.403Z,6.07
2023-01-26T03:02:49.809Z,3.47
2023-01-26T03:05:18.749Z,3.05
2023-01-26T03:07:47.751Z,4.40
2023-01-26T03:10:18.270Z,2.72
2023-01-26T03:12:48.637Z,2.40
2023-01-26T03:15:34.832Z,2.55
2023-01-26T03:18:21.729Z,2.58
2023-01-26T03:21:10.405Z,2.60
2023-01-26T03:23:56.855Z,3.10
2023-01-26T03:26:40.886Z,3.05
2023-01-26T03:29:11.107Z,3.25
2023-01-26T03:31:42.470Z,3.03
2023-01-26T03:34:11.580Z,2.22
2023-01-26T03:36:41.528Z,2.20
2023-01-26T03:39:35.251Z,2.40
2023-01-26T03:42:23.963Z,2.58
2023-01-26T03:45:11.616Z,2.33
2023-01-26T03:48:01.235Z,2.38
2023-01-26T03:50:48.826Z,2.90
2023-01-26T03:53:37.462Z,3.10
2023-01-26T03:56:19.255Z,2.40
2023-01-26T03:58:51.961Z,3.15
2023-01-26T04:01:27.706Z,3.25
2023-01-26T04:04:16.316Z,2.80
2023-01-26T04:07:05.249Z,3.33
2023-01-26T04:09:36.665Z,2.85
2023-01-26T04:12:06.636Z,3.30
2023-01-26T04:14:58.074Z,3.70
2023-01-26T04:17:48.289Z,3.22
2023-01-26T04:20:34.796Z,2.88
2023-01-26T04:23:03.703Z,2.53
2023-01-26T04:25:32.667Z,3.25
2023-01-26T04:28:02.063Z,2.97
2023-01-26T04:30:31.751Z,4.60
2023-01-26T04:33:02.153Z,4.30
2023-01-26T04:35:31.187Z,2.53
2023-01-26T04:38:00.165Z,3.30
2023-01-26T04:40:30.369Z,3.70
2023-01-26T04:42:59.305Z,2.88
2023-01-26T04:45:28.158Z,2.85
2023-01-26T04:47:57.202Z,2.50
2023-01-26T04:50:27.781Z,3.50
2023-01-26T04:52:56.632Z,4.38
2023-01-26T04:55:25.514Z,4.35
2023-01-26T04:57:54.502Z,3.38
2023-01-26T05:00:23.597Z,3.60
2023-01-26T05:02:54.863Z,3.30
2023-01-26T05:05:24.013Z,2.90
2023-01-26T05:07:54.315Z,8.85
2023-01-26T05:10:24.152Z,7.43
2023-01-26T05:13:03.796Z,11.55
2023-01-26T05:15:44.049Z,3.83
2023-01-26T05:18:26.073Z,9.35
2023-01-26T05:20:59.037Z,10.95
2023-01-26T05:23:30.868Z,6.70
2023-01-26T05:26:32.142Z,8.88
2023-01-26T05:29:05.436Z,7.97
2023-01-26T05:31:37.175Z,6.72
2023-01-26T05:34:06.090Z,5.53
2023-01-26T05:36:37.315Z,5.68
2023-01-26T05:39:07.564Z,5.05
2023-01-26T05:41:36.944Z,6.57
2023-01-26T05:44:21.263Z,5.10
2023-01-26T05:46:54.351Z,4.10
2023-01-26T05:49:24.132Z,5.13
2023-01-26T05:51:54.147Z,7.13
2023-01-26T05:54:24.517Z,10.90
2023-01-26T05:56:54.018Z,7.50
2023-01-26T05:59:22.887Z,6.70
2023-01-26T06:01:51.937Z,8.48
2023-01-26T06:04:21.287Z,3.72
2023-01-26T06:06:54.885Z,4.70
2023-01-26T06:09:35.354Z,5.80
2023-01-26T06:12:04.489Z,6.55
2023-01-26T06:14:53.305Z,4.97
2023-01-26T06:17:22.246Z,7.28
2023-01-26T06:19:57.200Z,7.68
2023-01-26T06:22:26.158Z,6.00
2023-01-26T06:24:56.452Z,5.40
2023-01-26T06:27:25.315Z,5.03
2023-01-26T06:29:55.086Z,4.55
2023-01-26T06:32:25.490Z,5.40
2023-01-26T06:34:56.608Z,4.28
2023-01-26T06:37:27.031Z,5.35
2023-01-26T06:39:57.768Z,5.93
2023-01-26T06:42:26.588Z,7.15
2023-01-26T06:44:57.495Z,5.88
2023-01-26T06:47:27.024Z,6.35
2023-01-26T06:49:56.118Z,8.55
2023-01-26T06:52:29.354Z,5.13
2023-01-26T06:55:20.160Z,5.93
2023-01-26T06:57:56.194Z,6.38
2023-01-26T07:00:43.839Z,7.85
2023-01-26T07:03:15.772Z,6.72
2023-01-26T07:05:44.678Z,8.77
2023-01-26T07:08:13.648Z,6.72
2023-01-26T07:10:44.135Z,6.10
2023-01-26T07:13:12.966Z,5.65
2023-01-26T07:15:41.959Z,4.55
2023-01-26T07:18:11.048Z,5.50
2023-01-26T07:20:39.939Z,7.15
2023-01-26T07:23:08.729Z,5.68
2023-01-26T07:25:37.522Z,4.82
2023-01-26T07:28:10.094Z,5.28
2023-01-26T07:30:39.008Z,6.10
2023-01-26T07:33:07.841Z,7.10
2023-01-26T07:35:36.674Z,5.93
2023-01-26T07:38:05.540Z,8.00
2023-01-26T07:40:34.880Z,10.90
2023-01-26T07:43:03.794Z,11.57
2023-01-26T07:45:52.492Z,5.90
2023-01-26T07:48:22.382Z,6.28
2023-01-26T07:50:51.930Z,8.10
2023-01-26T07:53:23.036Z,5.25
2023-01-26T07:55:52.051Z,4.18
2023-01-26T07:58:21.473Z,3.63
2023-01-26T08:00:51.716Z,7.22
2023-01-26T08:03:20.607Z,7.30
2023-01-26T08:05:49.434Z,5.35
2023-01-26T08:08:18.297Z,3.83
2023-01-26T08:10:47.080Z,4.40
2023-01-26T08:13:23.577Z,3.92
2023-01-26T08:15:56.950Z,3.75
2023-01-26T08:18:25.795Z,4.13
2023-01-26T08:20:55.311Z,3.15
2023-01-26T08:23:24.188Z,2.97
2023-01-26T08:25:53.020Z,2.60
2023-01-26T08:28:22.362Z,2.78
2023-01-26T08:30:51.133Z,2.90
2023-01-26T08:33:21.386Z,4.78
2023-01-26T08:35:50.282Z,4.40
2023-01-26T08:38:19.079Z,6.18
2023-01-26T08:40:52.937Z,4.68
2023-01-26T08:43:21.722Z,4.30
2023-01-26T08:45:50.657Z,2.80
2023-01-26T08:48:21.156Z,6.60
2023-01-26T08:50:50.126Z,6.28
2023-01-26T08:53:19.116Z,2.15
2023-01-26T08:55:47.964Z,2.80
2023-01-26T08:58:16.922Z,2.80
2023-01-26T09:00:45.903Z,2.95
2023-01-26T09:03:15.066Z,4.38
2023-01-26T09:05:45.391Z,5.70
2023-01-26T09:08:14.248Z,4.22
2023-01-26T09:10:45.280Z,7.30
2023-01-26T09:13:14.176Z,10.60
2023-01-26T09:15:43.016Z,7.45
2023-01-26T09:18:12.977Z,5.43
2023-01-26T09:20:42.491Z,4.78
2023-01-26T09:23:12.922Z,4.63
2023-01-26T09:25:41.787Z,3.58
2023-01-26T09:28:10.641Z,3.30
2023-01-26T09:30:39.633Z,3.50
2023-01-26T09:33:08.542Z,4.45
2023-01-26T09:35:37.361Z,2.20
2023-01-26T09:38:06.169Z,2.83
2023-01-26T09:40:44.652Z,5.05
2023-01-26T09:43:26.165Z,3.42
2023-01-26T09:46:04.712Z,3.10
2023-01-26T09:48:43.514Z,7.13
2023-01-26T09:51:19.737Z,2.25
2023-01-26T09:53:54.538Z,3.35
2023-01-26T09:56:29.419Z,2.42
2023-01-26T10:01:37.915Z,3.85
2023-01-26T10:04:17.185Z,3.38
2023-01-26T10:06:47.806Z,2.85
2023-01-26T10:09:39.836Z,2.85
2023-01-26T10:12:19.580Z,3.40
2023-01-26T10:14:52.839Z,3.83
2023-01-26T10:17:27.955Z,4.90
2023-01-26T10:20:03.851Z,17.48
2023-01-26T10:22:39.777Z,4.50
2023-01-26T10:25:16.665Z,2.58
2023-01-26T10:27:47.518Z,3.35
2023-01-26T10:30:18.060Z,3.30
2023-01-26T10:32:49.279Z,3.55
2023-01-26T10:35:20.985Z,12.00
2023-01-26T10:37:52.319Z,3.03
2023-01-26T10:40:21.786Z,2.58
2023-01-26T10:42:59.707Z,2.13
2023-01-26T10:45:31.768Z,3.45
2023-01-26T10:48:06.913Z,2.35
2023-01-26T10:50:36.096Z,1.10
2023-01-26T10:53:06.876Z,4.53
2023-01-26T10:55:37.416Z,1.80
2023-01-26T10:58:07.731Z,4.90
2023-01-26T11:00:37.167Z,7.07
2023-01-26T11:03:17.536Z,5.03
2023-01-26T11:05:48.169Z,5.03
2023-01-26T11:08:34.657Z,5.43
2023-01-26T11:11:04.653Z,4.00
2023-01-26T11:13:34.974Z,3.08
2023-01-26T11:16:10.450Z,2.55
2023-01-26T11:18:48.090Z,1.73
2023-01-26T11:21:20.360Z,3.38
2023-01-26T11:24:00.629Z,4.10
2023-01-26T11:26:54.449Z,4.40
2023-01-26T11:29:43.591Z,2.13
2023-01-26T11:32:23.842Z,2.53
2023-01-26T11:35:06.302Z,3.25
2023-01-26T11:37:43.637Z,4.85
2023-01-26T11:40:33.396Z,11.75
2023-01-26T11:43:21.003Z,8.73
2023-01-26T11:46:07.708Z,9.63
2023-01-26T11:48:46.352Z,3.78
2023-01-26T11:51:25.624Z,4.57
2023-01-26T11:54:07.161Z,2.83
2023-01-26T11:56:46.640Z,2.03
2023-01-26T11:59:20.458Z,1.48
2023-01-26T12:01:57.742Z,2.28
2023-01-26T12:04:28.436Z,2.03
2023-01-26T12:07:04.843Z,2.83
2023-01-26T12:09:39.772Z,2.55
2023-01-26T12:12:15.727Z,2.42
2023-01-26T12:14:51.990Z,1.50
2023-01-26T12:17:37.348Z,1.80
2023-01-26T12:22:48.241Z,20.55
2023-01-26T12:25:29.393Z,17.42
2023-01-26T12:28:07.027Z,6.57
2023-01-26T12:30:42.539Z,10.60
2023-01-26T12:33:13.168Z,5.40
2023-01-26T12:35:54.938Z,2.92
2023-01-26T12:38:35.144Z,4.50
2023-01-26T12:41:11.835Z,9.82
2023-01-26T12:43:53.130Z,6.15
2023-01-26T12:46:23.548Z,2.22
2023-01-26T12:48:57.473Z,2.47
2023-01-26T12:51:32.262Z,3.35
2023-01-26T12:54:07.848Z,1.80
2023-01-26T12:56:42.209Z,2.67
2023-01-26T12:59:28.262Z,5.13
2023-01-26T13:02:22.121Z,2.25
2023-01-26T13:04:53.019Z,3.72
2023-01-26T13:07:36.900Z,3.13
2023-01-26T13:10:24.890Z,4.65
2023-01-26T13:12:56.277Z,3.67
2023-01-26T13:15:27.297Z,3.28
2023-01-26T13:17:58.623Z,1.67
2023-01-26T13:20:47.401Z,1.98
2023-01-26T13:23:42.787Z,1.65
2023-01-26T13:26:45.514Z,2.35
2023-01-26T13:29:35.564Z,1.00
2023-01-26T13:32:37.807Z,1.35
2023-01-26T13:35:14.387Z,5.68
2023-01-26T13:37:50.863Z,1.95
2023-01-26T13:40:23.875Z,2.28
2023-01-26T13:42:58.320Z,0.98
2023-01-26T13:45:34.040Z,1.48
2023-01-26T13:48:13.391Z,0.70
2023-01-26T13:50:42.623Z,1.70
2023-01-26T13:53:44.847Z,2.35
2023-01-26T13:56:28.830Z,4.43
2023-01-26T13:59:10.547Z,3.70
2023-01-26T14:01:44.585Z,3.83
2023-01-26T14:04:20.139Z,10.97
2023-01-26T14:06:56.434Z,9.05
2023-01-26T14:09:28.617Z,2.58
2023-01-26T14:12:00.910Z,3.75
2023-01-26T14:14:32.568Z,1.90
2023-01-26T14:17:02.423Z,1.73
2023-01-26T14:19:32.225Z,2.75
2023-01-26T14:22:02.114Z,6.53
2023-01-26T14:24:36.350Z,3.30
2023-01-26T14:27:05.495Z,2.80
2023-01-26T14:29:40.459Z,1.70
2023-01-26T14:34:53.259Z,2.17
2023-01-26T14:37:22.577Z,1.65
2023-01-26T14:40:11.952Z,2.67
2023-01-26T14:42:42.090Z,3.92
2023-01-26T14:45:14.249Z,4.00
2023-01-26T14:47:45.334Z,10.90
2023-01-26T14:50:20.607Z,4.30
2023-01-26T14:52:49.473Z,10.13
2023-01-26T14:55:28.118Z,5.35
2023-01-26T14:57:57.816Z,12.52
2023-01-26T15:00:29.668Z,2.45
2023-01-26T15:03:02.012Z,5.35
2023-01-26T15:05:34.725Z,5.32
2023-01-26T15:08:05.952Z,7.10
2023-01-26T15:10:41.967Z,2.65
2023-01-26T15:13:22.840Z,7.70
2023-01-26T15:16:04.691Z,7.25
2023-01-26T15:18:35.171Z,5.15
2023-01-26T15:21:14.491Z,5.80
2023-01-26T15:23:45.157Z,6.88
2023-01-26T15:26:25.585Z,9.90
2023-01-26T15:28:56.144Z,9.60
2023-01-26T15:31:31.385Z,11.00
2023-01-26T15:34:02.062Z,10.30
2023-01-26T15:36:35.717Z,8.57
2023-01-26T15:39:13.299Z,12.40
2023-01-26T15:41:44.603Z,12.70
2023-01-26T15:44:17.202Z,12.05
2023-01-26T15:46:46.154Z,10.40
2023-01-26T15:49:15.544Z,12.93
2023-01-26T15:51:44.323Z,4.75
2023-01-26T15:54:13.407Z,5.97
2023-01-26T15:56:43.715Z,10.80
2023-01-26T15:59:12.590Z,5.22
2023-01-26T16:01:41.427Z,5.85
2023-01-26T16:04:13.759Z,5.45
2023-01-26T16:06:42.898Z,3.75
2023-01-26T16:09:11.707Z,2.53
2023-01-26T16:11:48.682Z,3.08
2023-01-26T16:14:17.820Z,4.60
2023-01-26T16:16:46.714Z,4.65
2023-01-26T16:19:34.427Z,2.58
2023-01-26T16:22:03.872Z,5.55
2023-01-26T16:24:32.729Z,2.25
2023-01-26T16:27:03.343Z,2.33
2023-01-26T16:29:32.515Z,2.80
2023-01-26T16:32:02.090Z,4.45
2023-01-26T16:34:31.179Z,4.03
2023-01-26T16:37:00.001Z,4.03
2023-01-26T16:39:29.750Z,5.55
2023-01-26T16:41:58.576Z,5.38
2023-01-26T16:44:28.968Z,4.15
2023-01-26T16:46:57.838Z,2.53
2023-01-26T16:49:26.935Z,2.45
2023-01-26T16:51:55.860Z,7.50
2023-01-26T16:54:24.654Z,5.30
2023-01-26T16:56:53.617Z,4.90
2023-01-26T16:59:22.501Z,5.78
2023-01-26T17:01:52.876Z,5.43
2023-01-26T17:04:21.764Z,2.75
2023-01-26T17:06:50.650Z,2.20
2023-01-26T17:09:21.043Z,3.75
2023-01-26T17:11:49.848Z,2.08
2023-01-26T17:14:18.653Z,2.10
2023-01-26T17:16:47.537Z,2.45
2023-01-26T17:19:17.785Z,2.40
2023-01-26T17:21:46.670Z,3.50
2023-01-26T17:24:15.568Z,1.95
2023-01-26T17:26:44.461Z,2.20
2023-01-26T17:29:13.529Z,2.13
2023-01-26T17:31:42.490Z,5.75
2023-01-26T17:34:11.419Z,9.02
2023-01-26T17:36:42.749Z,7.28
2023-01-26T17:39:13.880Z,6.47
2023-01-26T17:41:42.771Z,5.45
2023-01-26T17:44:11.609Z,3.38
2023-01-26T17:46:40.502Z,3.00
2023-01-26T17:49:10.103Z,2.55
2023-01-26T17:51:39.049Z,2.47
2023-01-26T17:54:09.298Z,1.88
2023-01-26T17:56:38.184Z,2.00
2023-01-26T17:59:07.080Z,1.85
2023-01-26T18:01:36.105Z,1.38
2023-01-26T18:04:05.144Z,1.73
2023-01-26T18:06:33.998Z,1.27
2023-01-26T18:09:04.174Z,3.20
2023-01-26T18:11:34.824Z,2.30
2023-01-26T18:14:03.770Z,2.60
2023-01-26T18:16:32.941Z,6.03
2023-01-26T18:19:04.479Z,14.23
2023-01-26T18:21:34.833Z,3.85
2023-01-26T18:24:06.509Z,2.95
2023-01-26T18:26:39.063Z,14.43
2023-01-26T18:29:08.849Z,7.25
2023-01-26T18:31:40.736Z,9.30
2023-01-26T18:34:09.684Z,8.55
2023-01-26T18:36:38.624Z,14.20
2023-01-26T18:39:09.865Z,15.63
2023-01-26T18:41:43.547Z,17.08
2023-01-26T18:44:12.876Z,22.02
2023-01-26T18:46:41.731Z,15.65
2023-01-26T18:49:11.131Z,4.32
2023-01-26T18:51:40.167Z,8.65
2023-01-26T18:54:09.698Z,18.10
2023-01-26T18:56:40.379Z,6.25
2023-01-26T18:59:10.667Z,1.65
2023-01-26T19:01:40.450Z,1.75
2023-01-26T19:04:09.347Z,1.70
2023-01-26T19:06:38.169Z,2.35
2023-01-26T19:09:08.766Z,2.00
2023-01-26T19:11:40.415Z,1.73
2023-01-26T19:14:10.015Z,2.10
2023-01-26T19:16:38.841Z,1.65
2023-01-26T19:19:07.704Z,1.67
2023-01-26T19:21:36.512Z,2.15
2023-01-26T19:24:07.207Z,2.78
2023-01-26T19:26:36.205Z,1.63
2023-01-26T19:29:06.796Z,2.67
2023-01-26T19:31:36.504Z,2.90
2023-01-26T19:34:07.141Z,2.90
2023-01-26T19:36:38.013Z,2.58
2023-01-26T19:39:07.865Z,3.15
2023-01-26T19:41:38.832Z,2.28
2023-01-26T19:44:09.135Z,5.15
2023-01-26T19:46:38.076Z,1.58
2023-01-26T19:49:11.719Z,3.65
2023-01-26T19:51:40.668Z,1.45
2023-01-26T19:54:10.169Z,0.90
2023-01-26T19:56:39.398Z,1.38
2023-01-26T19:59:11.756Z,1.45
2023-01-26T20:01:40.715Z,2.05
2023-01-26T20:04:12.545Z,1.65
2023-01-26T20:06:41.429Z,2.63
2023-01-26T20:09:10.591Z,2.33
2023-01-26T20:11:39.403Z,1.70
2023-01-26T20:14:11.997Z,1.02
2023-01-26T20:16:41.053Z,1.88
2023-01-26T20:19:09.994Z,2.33
2023-01-26T20:21:40.528Z,2.22
2023-01-26T20:24:13.733Z,3.17
2023-01-26T20:26:44.385Z,1.15
2023-01-26T20:29:16.796Z,1.48
2023-01-26T20:31:46.379Z,1.38
2023-01-26T20:34:16.199Z,1.58
2023-01-26T20:36:45.198Z,1.73
2023-01-26T20:39:16.235Z,2.30
2023-01-26T20:41:45.853Z,3.50
2023-01-26T20:44:16.150Z,2.58
2023-01-26T20:46:45.310Z,2.50
2023-01-26T20:49:16.357Z,2.30
2023-01-26T20:51:47.186Z,1.65
2023-01-26T20:54:17.785Z,1.70
2023-01-26T20:56:46.855Z,1.58
2023-01-26T20:59:17.185Z,1.30
2023-01-26T21:01:46.388Z,1.35
2023-01-26T21:04:15.216Z,2.08
2023-01-26T21:06:44.127Z,5.57
2023-01-26T21:09:13.190Z,10.50
2023-01-26T21:11:42.176Z,16.67
2023-01-26T21:14:13.276Z,10.95
2023-01-26T21:16:43.675Z,16.70
2023-01-26T21:19:12.667Z,9.90
2023-01-26T21:21:41.686Z,3.80
2023-01-26T21:24:11.518Z,4.55
2023-01-26T21:26:40.564Z,3.35
2023-01-26T21:29:15.830Z,4.05
2023-01-26T21:31:48.944Z,5.30
2023-01-26T21:34:17.948Z,1.75
2023-01-26T21:36:46.757Z,1.30
2023-01-26T21:39:15.778Z,1.58
2023-01-26T21:42:04.336Z,2.67
2023-01-26T21:44:54.645Z,3.03
2023-01-26T21:47:25.022Z,1.95
2023-01-26T21:49:53.964Z,0.93
2023-01-26T21:52:40.301Z,1.00
2023-01-26T21:55:09.889Z,2.22
2023-01-26T21:57:55.295Z,2.65
2023-01-26T22:02:54.557Z,2.25
2023-01-26T22:05:23.390Z,2.60
2023-01-26T22:07:52.262Z,1.40
2023-01-26T22:10:21.289Z,2.95
2023-01-26T22:12:50.359Z,4.72
2023-01-26T22:15:19.448Z,1.90
2023-01-26T22:17:48.348Z,1.13
2023-01-26T22:20:20.286Z,4.45
2023-01-26T22:22:49.579Z,2.33
2023-01-26T22:25:18.625Z,1.73
2023-01-26T22:27:47.557Z,6.43
2023-01-26T22:30:16.932Z,2.35
2023-01-26T22:32:45.767Z,3.10
2023-01-26T22:35:15.860Z,2.67
2023-01-26T22:37:46.325Z,1.40
2023-01-26T22:40:15.526Z,3.80
2023-01-26T22:42:44.369Z,3.75
2023-01-26T22:45:13.964Z,3.22
2023-01-26T22:47:42.781Z,3.25
2023-01-26T22:50:12.732Z,3.17
2023-01-26T22:52:41.832Z,2.28
2023-01-26T22:55:13.028Z,2.72
2023-01-26T22:57:42.017Z,2.15
2023-01-26T23:00:12.805Z,2.33
2023-01-26T23:02:41.955Z,2.40
2023-01-26T23:05:10.993Z,3.30
2023-01-26T23:07:39.877Z,3.25
2023-01-26T23:10:09.865Z,3.35
2023-01-26T23:12:40.227Z,3.08
2023-01-26T23:15:10.257Z,3.40
2023-01-26T23:17:39.095Z,2.75
2023-01-26T23:20:09.188Z,2.50
2023-01-26T23:22:38.366Z,2.45
2023-01-26T23:25:25.146Z,4.10
2023-01-26T23:27:55.401Z,4.10
2023-01-26T23:30:24.631Z,3.45
2023-01-26T23:32:53.475Z,2.90
2023-01-26T23:35:23.051Z,4.40
2023-01-26T23:37:53.131Z,2.72
2023-01-26T23:40:21.966Z,3.20
2023-01-26T23:43:06.855Z,2.78
2023-01-26T23:45:40.976Z,2.97
2023-01-26T23:48:09.796Z,2.88
2023-01-26T23:50:38.964Z,5.53
2023-01-26T23:53:07.829Z,6.88
2023-01-26T23:55:37.331Z,8.52
2023-01-26T23:58:06.174Z,7.85
